Time;durP1;ratioP1;P1;durP2;ratioP2;P2;SDS_P1;SDS_P2;PMS_P1;PMS_P2;Temp;Humidity;BMP_temperature;BMP_pressure;BME280_temperature;BME280_humidity;BME280_pressure;Samples;Min_cycle;Max_cycle;Signal;HPM_P1;HPM_P2
2021/10/25 00:02:10;;;;;;;12.23;7.30;;;4.80;99.90;;;;;;5030255;28;20116;-58
2021/10/25 00:04:36;;;;;;;15.73;7.25;;;4.80;99.90;;;;;;4992171;28;20087;-59
2021/10/25 00:07:02;;;;;;;14.65;7.53;;;4.80;99.90;;;;;;5032729;28;20037;-58
2021/10/25 00:09:28;;;;;;;17.75;7.72;;;4.80;99.90;;;;;;5023154;28;20088;-57
2021/10/25 00:11:54;;;;;;;16.30;7.38;;;4.70;99.90;;;;;;5029602;28;20037;-58
2021/10/25 00:14:19;;;;;;;14.85;8.27;;;4.70;99.90;;;;;;5025089;28;20632;-57
2021/10/25 00:16:45;;;;;;;11.73;7.68;;;4.70;99.90;;;;;;5026911;28;20057;-54
2021/10/25 00:19:11;;;;;;;13.40;7.35;;;4.70;99.90;;;;;;5025367;28;20068;-55
2021/10/25 00:21:38;;;;;;;14.20;8.07;;;4.70;99.90;;;;;;5020227;28;20025;-55
2021/10/25 00:24:04;;;;;;;13.57;7.70;;;4.70;99.90;;;;;;5027907;28;20029;-58
2021/10/25 00:26:30;;;;;;;11.15;7.15;;;4.70;99.90;;;;;;5031456;28;20395;-59
2021/10/25 00:28:56;;;;;;;16.13;7.82;;;4.60;99.90;;;;;;5028618;28;20034;-59
2021/10/25 00:31:21;;;;;;;16.85;7.70;;;4.60;99.90;;;;;;5031374;28;20028;-57
2021/10/25 00:33:47;;;;;;;14.15;7.75;;;4.50;99.90;;;;;;5027770;28;20444;-56
2021/10/25 00:36:13;;;;;;;15.23;7.82;;;4.50;99.90;;;;;;5022542;28;20064;-57
2021/10/25 00:38:39;;;;;;;13.98;7.15;;;4.50;99.90;;;;;;5029774;28;20475;-54
2021/10/25 00:41:05;;;;;;;13.15;7.28;;;4.50;99.90;;;;;;5031863;28;20025;-57
2021/10/25 00:43:32;;;;;;;14.25;7.43;;;4.40;99.90;;;;;;5031236;28;20021;-59
2021/10/25 00:45:59;;;;;;;11.77;7.57;;;4.40;99.90;;;;;;5023521;28;20026;-59
2021/10/25 00:48:24;;;;;;;13.93;7.28;;;4.40;99.90;;;;;;5031058;28;20090;-58
2021/10/25 00:50:50;;;;;;;17.25;8.25;;;4.40;99.90;;;;;;5030977;28;20037;-59
2021/10/25 00:53:16;;;;;;;16.80;8.85;;;4.30;99.90;;;;;;5000686;28;20515;-58
2021/10/25 00:55:42;;;;;;;13.15;8.32;;;4.30;99.90;;;;;;5025305;28;20026;-53
2021/10/25 00:58:09;;;;;;;16.27;8.65;;;4.30;99.90;;;;;;5031104;28;20034;-56
2021/10/25 01:00:35;;;;;;;14.20;8.25;;;4.30;99.90;;;;;;5027457;28;20387;-55
2021/10/25 01:03:01;;;;;;;13.73;8.32;;;4.30;99.90;;;;;;5028439;28;20037;-54
2021/10/25 01:05:29;;;;;;;16.38;7.35;;;4.30;99.90;;;;;;5012714;28;20041;-58
2021/10/25 01:07:55;;;;;;;19.38;9.93;;;4.20;99.90;;;;;;5029539;28;20117;-58
2021/10/25 01:10:21;;;;;;;13.43;7.95;;;4.20;99.90;;;;;;5028211;28;20113;-56
2021/10/25 01:12:50;;;;;;;14.98;7.28;;;4.20;99.90;;;;;;5029945;28;20040;-57
2021/10/25 01:15:15;;;;;;;14.25;8.63;;;4.20;99.90;;;;;;5027013;28;20047;-57
2021/10/25 01:17:41;;;;;;;12.73;7.88;;;4.20;99.90;;;;;;5030315;28;20395;-59
2021/10/25 01:20:07;;;;;;;16.85;8.23;;;4.10;99.90;;;;;;5024531;28;20029;-57
2021/10/25 01:22:34;;;;;;;20.20;8.20;;;4.10;99.90;;;;;;5030157;28;20499;-59
2021/10/25 01:25:01;;;;;;;17.58;8.13;;;4.10;99.90;;;;;;5029082;28;20395;-58
2021/10/25 01:27:26;;;;;;;15.18;7.70;;;4.10;99.90;;;;;;5029864;28;20036;-58
2021/10/25 01:29:52;;;;;;;16.40;9.63;;;4.10;99.90;;;;;;5019678;28;20407;-52
2021/10/25 01:32:18;;;;;;;18.77;9.77;;;4.10;99.90;;;;;;5035453;28;20495;-58
2021/10/25 01:34:44;;;;;;;20.70;8.10;;;4.10;99.90;;;;;;5032939;28;20029;-59
2021/10/25 01:37:10;;;;;;;19.42;8.30;;;4.10;99.90;;;;;;5033640;28;20038;-59
2021/10/25 01:39:36;;;;;;;19.10;8.82;;;4.10;99.90;;;;;;5033083;28;20021;-59
2021/10/25 01:42:03;;;;;;;16.73;9.20;;;4.10;99.90;;;;;;5032557;28;20026;-62
2021/10/25 01:44:29;;;;;;;21.38;9.25;;;4.00;99.90;;;;;;5023035;28;20037;-57
2021/10/25 01:46:54;;;;;;;12.60;8.52;;;4.00;99.90;;;;;;5030208;28;20034;-57
2021/10/25 01:49:20;;;;;;;14.75;8.82;;;4.00;99.90;;;;;;5025392;28;20108;-57
2021/10/25 01:51:45;;;;;;;17.98;8.90;;;3.90;99.90;;;;;;5025753;28;20491;-55
2021/10/25 01:54:11;;;;;;;12.00;7.80;;;3.90;99.90;;;;;;5029277;28;20025;-57
2021/10/25 01:56:38;;;;;;;18.50;9.48;;;4.00;99.90;;;;;;5030154;28;20040;-56
2021/10/25 01:59:06;;;;;;;18.15;9.80;;;3.90;99.90;;;;;;5023925;28;20028;-57
2021/10/25 02:01:32;;;;;;;13.88;8.85;;;3.90;99.90;;;;;;5027451;28;20052;-56
2021/10/25 02:03:58;;;;;;;18.58;9.07;;;3.90;99.90;;;;;;5011002;28;20045;-58
2021/10/25 02:06:23;;;;;;;15.88;9.65;;;3.90;99.90;;;;;;5022113;28;20105;-59
2021/10/25 02:08:49;;;;;;;17.10;9.95;;;3.90;99.90;;;;;;5027498;28;20053;-57
2021/10/25 02:11:16;;;;;;;20.33;9.07;;;3.90;99.90;;;;;;5030256;28;20032;-57
2021/10/25 02:13:41;;;;;;;19.00;9.57;;;3.90;99.90;;;;;;5027332;28;20025;-56
2021/10/25 02:16:08;;;;;;;18.83;10.90;;;3.90;99.90;;;;;;5029507;28;20036;-58
2021/10/25 02:18:34;;;;;;;18.67;9.07;;;3.90;99.90;;;;;;5028502;28;20021;-58
2021/10/25 02:20:59;;;;;;;17.00;9.95;;;4.00;99.90;;;;;;5029707;28;20228;-57
2021/10/25 02:23:25;;;;;;;16.13;9.07;;;4.00;99.90;;;;;;5030291;28;20164;-57
2021/10/25 02:25:51;;;;;;;19.92;10.13;;;3.90;99.90;;;;;;5018217;28;20025;-55
2021/10/25 02:28:17;;;;;;;23.73;11.45;;;4.00;99.90;;;;;;5028277;28;20025;-58
2021/10/25 02:30:43;;;;;;;17.25;9.85;;;4.10;99.90;;;;;;5028771;28;20036;-56
2021/10/25 02:33:08;;;;;;;18.10;10.52;;;4.10;99.90;;;;;;5031250;28;20156;-56
2021/10/25 02:35:34;;;;;;;20.30;10.00;;;4.10;99.90;;;;;;5031500;28;20067;-56
2021/10/25 02:37:59;;;;;;;15.60;9.50;;;4.10;99.90;;;;;;5033047;28;20057;-58
2021/10/25 02:40:28;;;;;;;22.40;10.65;;;4.10;99.90;;;;;;5031469;28;20466;-58
2021/10/25 02:42:55;;;;;;;18.30;9.88;;;4.00;99.90;;;;;;5033809;28;20040;-57
2021/10/25 02:45:21;;;;;;;20.10;10.90;;;4.00;99.90;;;;;;5027352;28;20033;-56
2021/10/25 02:47:47;;;;;;;20.67;9.45;;;4.00;99.90;;;;;;5058835;23;20057;-60
2021/10/25 02:50:13;;;;;;;23.23;10.93;;;4.00;99.90;;;;;;5041687;28;20125;-58
2021/10/25 02:52:39;;;;;;;20.00;9.27;;;4.00;99.90;;;;;;5052358;28;20036;-61
2021/10/25 02:55:06;;;;;;;17.13;9.95;;;4.00;99.90;;;;;;5049320;28;20024;-61
2021/10/25 02:57:31;;;;;;;20.67;8.57;;;3.90;99.90;;;;;;5053714;28;20033;-59
2021/10/25 02:59:57;;;;;;;23.17;9.95;;;3.90;99.90;;;;;;5042084;28;20048;-59
2021/10/25 03:02:23;;;;;;;15.23;9.00;;;3.80;99.90;;;;;;5053045;28;20162;-59
2021/10/25 03:04:48;;;;;;;16.42;9.65;;;3.80;99.90;;;;;;5033129;28;20060;-59
2021/10/25 03:07:14;;;;;;;20.58;10.40;;;3.80;99.90;;;;;;5052785;28;20103;-60
2021/10/25 03:09:40;;;;;;;20.05;9.75;;;3.80;99.90;;;;;;5043874;28;20025;-58
2021/10/25 03:12:06;;;;;;;14.15;8.82;;;3.90;99.90;;;;;;5050510;28;20037;-58
2021/10/25 03:14:31;;;;;;;20.05;9.45;;;3.80;99.90;;;;;;5045636;28;20124;-58
2021/10/25 03:16:57;;;;;;;17.35;8.45;;;3.80;99.90;;;;;;5051991;28;20033;-60
2021/10/25 03:19:23;;;;;;;17.38;8.85;;;3.70;99.90;;;;;;5045761;28;20024;-59
2021/10/25 03:21:49;;;;;;;16.23;9.20;;;3.70;99.90;;;;;;5044504;28;20632;-60
2021/10/25 03:24:15;;;;;;;14.57;8.07;;;3.70;99.90;;;;;;5049481;28;20028;-60
2021/10/25 03:26:41;;;;;;;14.65;9.02;;;3.70;99.90;;;;;;5044861;28;20057;-60
2021/10/25 03:29:06;;;;;;;20.65;11.10;;;3.60;99.90;;;;;;5049630;28;20028;-60
2021/10/25 03:31:32;;;;;;;18.38;9.90;;;3.60;99.90;;;;;;5051796;28;20035;-59
2021/10/25 03:33:57;;;;;;;20.10;9.85;;;3.70;99.90;;;;;;5051804;28;20032;-59
2021/10/25 03:36:26;;;;;;;18.30;9.77;;;3.60;99.90;;;;;;5052626;28;20108;-60
2021/10/25 03:38:53;;;;;;;18.70;9.32;;;3.60;99.90;;;;;;5051268;28;20748;-61
2021/10/25 03:41:24;;;;;;;15.90;9.50;;;3.70;99.90;;;;;;5053070;28;20037;-60
2021/10/25 03:43:54;;;;;;;19.08;9.43;;;3.70;99.90;;;;;;5050743;28;20574;-60
2021/10/25 03:46:24;;;;;;;15.35;8.95;;;3.60;99.90;;;;;;5051730;28;20021;-58
2021/10/25 03:49:00;;;;;;;15.52;9.52;;;3.60;99.90;;;;;;5051491;28;20041;-61
2021/10/25 03:51:25;;;;;;;17.48;10.02;;;3.60;99.90;;;;;;5049471;28;20029;-61
2021/10/25 03:53:59;;;;;;;22.40;10.80;;;3.60;99.90;;;;;;5048710;28;20399;-59
2021/10/25 04:28:38;;;;;;;15.27;8.98;;;3.50;99.90;;;;;;5049453;28;20032;-60
2021/10/25 04:31:04;;;;;;;26.20;13.00;;;3.40;99.90;;;;;;5039423;28;20047;-59
2021/10/25 04:33:30;;;;;;;18.90;10.50;;;3.40;99.90;;;;;;5049100;28;20466;-60
2021/10/25 04:35:55;;;;;;;18.50;10.57;;;3.50;99.90;;;;;;5050189;28;20047;-59
2021/10/25 04:38:21;;;;;;;20.70;10.52;;;3.50;99.90;;;;;;5043278;28;20021;-60
2021/10/25 04:40:47;;;;;;;18.90;9.63;;;3.50;99.90;;;;;;5049406;28;20060;-59
2021/10/25 04:43:14;;;;;;;18.70;10.38;;;3.40;99.90;;;;;;5049818;28;20033;-61
2021/10/25 04:45:42;;;;;;;15.55;9.23;;;3.40;99.90;;;;;;5048768;28;20037;-60
2021/10/25 04:48:07;;;;;;;18.23;8.38;;;3.30;99.90;;;;;;5051531;28;20079;-59
2021/10/25 04:50:33;;;;;;;18.20;8.30;;;3.20;99.90;;;;;;5033146;28;20038;-59
2021/10/25 04:52:59;;;;;;;17.88;9.93;;;3.10;99.90;;;;;;5049586;28;20033;-60
2021/10/25 04:55:25;;;;;;;18.92;9.70;;;3.10;99.90;;;;;;5047356;28;20086;-61
2021/10/25 04:57:50;;;;;;;20.35;9.82;;;3.10;99.90;;;;;;5032181;28;20041;-58
2021/10/25 05:00:16;;;;;;;18.73;10.52;;;3.10;99.90;;;;;;5047449;28;20033;-59
2021/10/25 05:02:41;;;;;;;20.67;10.60;;;3.10;99.90;;;;;;5049810;28;20040;-58
2021/10/25 05:05:08;;;;;;;24.63;14.57;;;3.00;99.90;;;;;;5026955;28;20053;-60
2021/10/25 05:07:34;;;;;;;25.38;12.95;;;3.00;99.90;;;;;;5047311;28;20417;-60
2021/10/25 05:10:02;;;;;;;27.13;12.65;;;3.10;99.90;;;;;;5044591;28;20030;-59
2021/10/25 05:12:28;;;;;;;22.05;13.13;;;3.00;99.90;;;;;;5051205;28;20033;-60
2021/10/25 05:14:54;;;;;;;18.75;12.32;;;3.10;99.90;;;;;;5042276;28;20040;-60
2021/10/25 05:17:19;;;;;;;26.08;14.60;;;3.10;99.90;;;;;;5049551;28;20099;-58
2021/10/25 05:19:45;;;;;;;20.00;10.15;;;3.00;99.90;;;;;;5039808;28;20038;-58
2021/10/25 05:22:11;;;;;;;17.98;10.93;;;3.00;99.90;;;;;;5051249;28;20449;-59
2021/10/25 05:24:39;;;;;;;19.85;10.07;;;2.90;99.90;;;;;;5046772;28;20382;-59
2021/10/25 05:27:06;;;;;;;18.85;10.90;;;2.90;99.90;;;;;;5049793;28;20047;-58
2021/10/25 05:29:32;;;;;;;18.98;9.35;;;3.00;99.90;;;;;;5048501;28;20052;-58
2021/10/25 05:31:58;;;;;;;15.18;10.07;;;3.00;99.90;;;;;;5051189;28;20402;-61
2021/10/25 05:34:24;;;;;;;19.38;10.35;;;3.00;99.90;;;;;;5041874;28;20072;-61
2021/10/25 05:36:50;;;;;;;16.92;10.20;;;3.10;99.90;;;;;;5046133;28;20072;-59
2021/10/25 05:39:15;;;;;;;24.52;10.63;;;3.10;99.90;;;;;;5043233;28;20410;-59
2021/10/25 05:41:43;;;;;;;18.40;10.75;;;3.10;99.90;;;;;;5050562;28;20696;-60
2021/10/25 05:44:09;;;;;;;18.00;10.48;;;3.20;99.90;;;;;;5028571;28;20032;-61
2021/10/25 05:46:34;;;;;;;24.10;11.43;;;3.30;99.90;;;;;;5049210;28;20033;-61
2021/10/25 05:49:00;;;;;;;19.65;10.60;;;3.40;99.90;;;;;;5046300;28;20083;-62
2021/10/25 05:51:26;;;;;;;25.98;9.68;;;3.50;99.90;;;;;;5046040;28;20040;-61
2021/10/25 05:53:52;;;;;;;19.30;9.90;;;3.50;99.90;;;;;;5046295;28;20025;-62
2021/10/25 05:56:17;;;;;;;16.58;8.05;;;3.50;99.90;;;;;;5045280;28;20475;-62
2021/10/25 05:58:43;;;;;;;18.67;9.73;;;3.50;99.90;;;;;;5046272;28;20029;-62
2021/10/25 06:01:17;;;;;;;14.60;8.95;;;3.50;99.90;;;;;;5048394;28;20743;-61
2021/10/25 06:03:46;;;;;;;17.08;9.60;;;3.40;99.90;;;;;;5039876;28;20651;-62
2021/10/25 06:06:11;;;;;;;21.27;9.75;;;3.40;99.90;;;;;;5018485;28;20040;-61
2021/10/25 06:08:39;;;;;;;15.00;9.13;;;3.40;99.90;;;;;;5048250;28;20078;-60
2021/10/25 06:11:05;;;;;;;20.42;9.80;;;3.40;99.90;;;;;;5032140;28;20026;-60
2021/10/25 06:13:40;;;;;;;19.02;10.90;;;3.30;99.90;;;;;;5030398;28;20061;-56
2021/10/25 06:16:18;;;;;;;17.52;11.07;;;3.30;99.90;;;;;;5049966;28;20029;-59
2021/10/25 06:18:45;;;;;;;16.75;10.32;;;3.30;99.90;;;;;;5039043;28;20040;-62
2021/10/25 06:21:11;;;;;;;18.67;10.52;;;3.30;99.90;;;;;;5059515;28;20033;-56
2021/10/25 06:23:38;;;;;;;15.65;10.32;;;3.40;99.90;;;;;;5047655;28;20037;-57
2021/10/25 06:26:04;;;;;;;17.10;10.05;;;3.40;99.90;;;;;;5026839;28;20481;-61
2021/10/25 06:28:30;;;;;;;19.20;11.23;;;3.30;99.90;;;;;;5030828;28;20029;-57
2021/10/25 06:31:03;;;;;;;21.30;9.68;;;3.40;99.90;;;;;;5038205;28;20037;-59
2021/10/25 06:33:29;;;;;;;16.48;9.50;;;3.40;99.90;;;;;;5047144;28;20419;-54
2021/10/25 06:36:03;;;;;;;19.20;10.27;;;3.40;99.90;;;;;;5049036;28;20056;-58
2021/10/25 06:38:37;;;;;;;18.50;9.70;;;3.40;99.90;;;;;;5048869;28;20064;-55
2021/10/25 06:41:03;;;;;;;17.63;10.18;;;3.40;99.90;;;;;;5044462;28;20391;-59
2021/10/25 06:43:29;;;;;;;25.75;12.05;;;3.40;99.90;;;;;;5048108;28;20025;-52
2021/10/25 06:45:56;;;;;;;16.17;10.57;;;3.50;99.90;;;;;;5046076;28;20422;-60
2021/10/25 06:48:22;;;;;;;19.75;9.75;;;3.50;99.90;;;;;;5031274;28;20128;-59
2021/10/25 06:50:48;;;;;;;19.45;9.93;;;3.50;99.90;;;;;;5044859;28;20025;-54
2021/10/25 06:53:16;;;;;;;23.48;9.82;;;3.50;99.90;;;;;;5049448;28;20048;-53
2021/10/25 06:55:41;;;;;;;19.83;10.68;;;3.50;99.90;;;;;;5038846;28;20021;-59
2021/10/25 06:58:07;;;;;;;20.48;11.93;;;3.60;99.90;;;;;;5048560;28;20033;-61
2021/10/25 07:00:33;;;;;;;20.80;11.75;;;3.60;99.90;;;;;;5044976;28;20502;-60
2021/10/25 07:02:58;;;;;;;18.95;11.55;;;3.70;99.90;;;;;;5046313;28;20406;-60
2021/10/25 07:05:25;;;;;;;21.40;10.32;;;3.80;99.90;;;;;;5023617;28;20068;-60
2021/10/25 07:07:51;;;;;;;17.52;11.00;;;3.90;99.90;;;;;;5045606;28;20029;-61
2021/10/25 07:10:17;;;;;;;20.55;10.73;;;4.10;99.90;;;;;;5045974;28;20052;-61
2021/10/25 07:12:44;;;;;;;18.75;10.57;;;4.20;99.90;;;;;;5049720;28;20647;-59
2021/10/25 07:15:10;;;;;;;16.23;11.00;;;4.40;99.90;;;;;;5041436;28;20033;-60
2021/10/25 07:17:47;;;;;;;16.35;9.65;;;4.50;99.90;;;;;;5048467;28;20067;-59
2021/10/25 08:11:07;;;;;;;12.82;7.32;;;6.00;99.90;;;;;;5050006;28;20539;-60
2021/10/25 08:13:37;;;;;;;14.43;8.55;;;6.10;99.90;;;;;;5030696;28;20049;-61
2021/10/25 08:19:10;;;;;;;18.45;8.77;;;6.20;99.90;;;;;;5005925;28;20080;-62
2021/10/25 08:21:35;;;;;;;12.88;8.30;;;6.30;99.90;;;;;;5049335;28;20040;-62
2021/10/25 08:24:01;;;;;;;12.90;7.53;;;6.40;99.90;;;;;;5047143;28;20029;-61
2021/10/25 08:26:26;;;;;;;12.52;7.95;;;6.50;99.90;;;;;;5040771;28;20107;-62
2021/10/25 08:28:52;;;;;;;10.85;7.00;;;6.60;99.90;;;;;;5042331;28;20028;-62
2021/10/25 08:31:18;;;;;;;10.95;8.18;;;6.70;99.90;;;;;;5044735;28;20025;-61
2021/10/25 08:34:27;;;;;;;11.43;7.50;;;6.80;99.90;;;;;;5049004;28;20032;-59
2021/10/25 08:41:58;;;;;;;12.05;6.85;;;7.10;99.90;;;;;;5050301;28;20028;-60
2021/10/25 08:44:24;;;;;;;11.73;6.47;;;7.30;99.90;;;;;;5050206;28;20482;-62
2021/10/25 08:46:54;;;;;;;18.50;8.57;;;7.30;99.90;;;;;;5044017;28;20068;-61
2021/10/25 08:49:20;;;;;;;23.35;8.55;;;7.50;99.90;;;;;;5036719;28;20033;-58
2021/10/25 08:51:46;;;;;;;10.20;5.72;;;7.50;99.90;;;;;;5031364;28;20081;-59
2021/10/25 08:54:11;;;;;;;9.27;5.47;;;7.70;99.90;;;;;;5045039;28;20478;-60
2021/10/25 08:56:39;;;;;;;9.25;5.30;;;7.80;99.90;;;;;;5043709;28;20033;-59
2021/10/25 08:59:05;;;;;;;9.85;6.00;;;7.90;99.90;;;;;;5041926;28;20048;-59
2021/10/25 09:01:32;;;;;;;10.60;5.05;;;8.00;99.90;;;;;;5045723;28;20060;-60
2021/10/25 09:04:06;;;;;;;10.32;5.93;;;8.00;99.90;;;;;;5038598;28;20094;-62
2021/10/25 09:06:31;;;;;;;8.13;5.43;;;8.10;99.90;;;;;;5030670;28;20045;-60
2021/10/25 09:09:06;;;;;;;10.63;5.30;;;8.20;99.90;;;;;;5031139;28;20491;-61
2021/10/25 09:11:32;;;;;;;13.57;6.18;;;8.60;99.90;;;;;;5044282;28;20033;-62
2021/10/25 09:13:58;;;;;;;10.60;5.57;;;9.00;99.90;;;;;;5032919;28;20041;-58
2021/10/25 09:16:24;;;;;;;12.05;7.72;;;9.40;99.90;;;;;;5027764;28;20446;-60
2021/10/25 09:18:50;;;;;;;12.85;7.22;;;9.70;99.90;;;;;;5041228;28;20034;-60
2021/10/25 09:21:16;;;;;;;7.43;4.38;;;10.20;99.90;;;;;;5047202;28;20029;-58
2021/10/25 09:23:45;;;;;;;9.30;4.35;;;10.70;99.90;;;;;;5045191;28;20021;-60
2021/10/25 09:26:20;;;;;;;6.78;4.60;;;11.30;99.90;;;;;;5042892;28;20479;-60
2021/10/25 09:28:51;;;;;;;6.70;4.72;;;11.70;99.90;;;;;;5045523;28;20027;-57
2021/10/25 09:31:51;;;;;;;5.70;3.72;;;12.10;99.90;;;;;;5048448;28;20029;-60
2021/10/25 09:34:14;;;;;;;14.15;8.57;;;12.40;99.90;;;;;;5035237;28;20047;-59
2021/10/25 09:36:50;;;;;;;11.68;8.63;;;12.80;99.90;;;;;;5037685;28;20053;-60
2021/10/25 09:39:24;;;;;;;10.15;4.68;;;13.10;99.90;;;;;;5034763;28;20040;-60
2021/10/25 09:49:57;;;;;;;6.10;3.53;;;13.50;99.90;;;;;;5046445;28;20115;-56
2021/10/25 09:52:32;;;;;;;5.95;3.20;;;13.30;99.90;;;;;;5048826;28;20021;-60
2021/10/25 09:55:07;;;;;;;7.32;3.40;;;13.10;99.90;;;;;;5041068;28;20028;-60
2021/10/25 10:00:11;;;;;;;6.25;2.72;;;12.90;99.90;;;;;;5046400;28;20112;-59
2021/10/25 10:02:37;;;;;;;9.07;3.50;;;12.70;99.90;;;;;;5049128;28;20029;-57
2021/10/25 10:05:05;;;;;;;5.47;3.63;;;12.80;99.90;;;;;;5025280;28;20503;-60
2021/10/25 10:07:35;;;;;;;6.03;3.60;;;12.70;99.90;;;;;;5045826;28;20056;-62
2021/10/25 10:10:02;;;;;;;6.55;3.00;;;12.70;99.90;;;;;;5049393;28;20033;-60
2021/10/25 10:12:28;;;;;;;14.25;4.85;;;12.70;99.90;;;;;;5046185;28;20112;-57
2021/10/25 10:14:58;;;;;;;4.75;3.28;;;12.80;99.90;;;;;;5041200;28;20104;-60
2021/10/25 10:17:29;;;;;;;6.85;3.25;;;12.80;99.90;;;;;;5044711;28;20316;-59
2021/10/25 10:19:59;;;;;;;8.32;2.58;;;12.90;99.90;;;;;;5044262;28;20021;-60
2021/10/25 10:22:26;;;;;;;6.05;3.08;;;12.90;99.90;;;;;;5042352;28;20571;-60
2021/10/25 10:24:52;;;;;;;6.00;2.72;;;13.00;99.90;;;;;;5039879;28;20433;-60
2021/10/25 10:27:21;;;;;;;3.80;2.42;;;13.00;99.90;;;;;;5042081;28;20086;-56
2021/10/25 10:29:53;;;;;;;7.03;3.42;;;13.20;99.90;;;;;;5033103;28;20475;-59
2021/10/25 10:32:20;;;;;;;12.55;4.18;;;13.20;99.90;;;;;;5041090;28;20028;-60
2021/10/25 10:34:50;;;;;;;5.00;2.78;;;13.40;99.90;;;;;;5033815;28;20032;-60
2021/10/25 10:37:19;;;;;;;4.05;2.80;;;13.50;99.90;;;;;;5033903;28;20033;-58
2021/10/25 10:40:03;;;;;;;5.63;2.78;;;13.50;99.90;;;;;;5046723;28;20147;-61
2021/10/25 10:42:29;;;;;;;;;;;13.40;99.90;;;;;;5043513;28;20094;-61
2021/10/25 10:45:03;;;;;;;4.30;2.65;;;13.50;99.90;;;;;;5034627;28;20438;-60
2021/10/25 10:47:38;;;;;;;6.18;2.53;;;13.50;99.90;;;;;;5039035;28;20037;-60
2021/10/25 10:50:17;;;;;;;5.40;2.50;;;13.70;99.90;;;;;;5035782;28;20044;-60
2021/10/25 10:52:47;;;;;;;5.03;1.90;;;13.80;99.90;;;;;;5035043;28;20033;-59
2021/10/25 10:55:18;;;;;;;5.18;2.42;;;13.80;99.90;;;;;;5041516;28;20038;-61
2021/10/25 11:00:38;;;;;;;26.52;10.90;;;13.80;99.90;;;;;;5041527;28;20437;-60
2021/10/25 11:03:19;;;;;;;13.20;6.07;;;13.90;99.90;;;;;;5067212;23;20033;-58
2021/10/25 11:05:54;;;;;;;40.58;15.45;;;14.10;99.90;;;;;;5005853;28;20045;-59
2021/10/25 11:08:23;;;;;;;26.95;11.43;;;14.00;99.90;;;;;;5026190;28;20029;-60
2021/10/25 11:11:02;;;;;;;16.90;7.10;;;14.10;99.90;;;;;;5029938;28;20711;-57
2021/10/25 11:13:31;;;;;;;13.88;8.75;;;14.10;99.90;;;;;;5032853;28;20030;-60
2021/10/25 11:16:06;;;;;;;16.65;9.15;;;14.20;99.90;;;;;;5030631;28;20041;-59
2021/10/25 11:18:34;;;;;;;10.00;4.15;;;14.30;99.90;;;;;;5027245;28;20610;-58
2021/10/25 11:21:12;;;;;;;7.53;3.28;;;14.30;99.90;;;;;;5027501;28;20045;-59
2021/10/25 11:23:44;;;;;;;7.28;1.98;;;14.50;99.90;;;;;;5026335;28;20017;-57
2021/10/25 11:26:23;;;;;;;3.83;1.83;;;14.60;99.90;;;;;;5020887;28;20124;-60
2021/10/25 11:29:17;;;;;;;3.10;2.00;;;14.60;99.90;;;;;;5025770;28;20057;-58
2021/10/25 11:31:48;;;;;;;2.97;1.60;;;14.70;99.90;;;;;;5027709;28;20113;-60
2021/10/25 11:34:27;;;;;;;8.23;3.33;;;14.70;99.90;;;;;;5029234;28;20033;-59
2021/10/25 11:37:04;;;;;;;3.42;2.00;;;14.70;99.90;;;;;;5025764;28;20057;-57
2021/10/25 11:42:22;;;;;;;4.68;2.42;;;14.80;99.90;;;;;;5017882;28;20380;-58
2021/10/25 11:44:50;;;;;;;9.40;3.83;;;14.80;99.90;;;;;;5021519;28;20033;-60
2021/10/25 11:47:25;;;;;;;6.53;4.70;;;14.80;99.90;;;;;;5024105;28;20689;-59
2021/10/25 11:50:21;;;;;;;3.13;1.80;;;14.70;99.60;;;;;;5020370;28;20030;-60
2021/10/25 11:52:58;;;;;;;4.05;2.00;;;14.70;99.90;;;;;;5012448;28;20045;-60
2021/10/25 11:55:32;;;;;;;3.38;1.63;;;14.80;99.80;;;;;;5030613;28;20033;-60
2021/10/25 11:58:02;;;;;;;4.05;2.15;;;14.90;99.50;;;;;;5023453;28;20141;-60
2021/10/25 12:00:34;;;;;;;4.85;2.83;;;15.10;99.80;;;;;;5029002;28;20071;-60
2021/10/25 12:03:10;;;;;;;6.75;1.85;;;15.10;99.40;;;;;;5020174;28;20540;-57
2021/10/25 12:05:36;;;;;;;4.18;2.17;;;15.10;99.00;;;;;;4994954;28;20111;-60
2021/10/25 12:08:02;;;;;;;4.55;1.63;;;15.20;98.40;;;;;;5008648;28;20573;-57
2021/10/25 12:10:29;;;;;;;4.45;2.22;;;15.30;98.50;;;;;;5026422;28;20033;-61
2021/10/25 12:12:59;;;;;;;4.25;1.85;;;15.50;97.90;;;;;;5018333;28;20017;-60
2021/10/25 12:15:28;;;;;;;4.43;2.40;;;15.70;97.90;;;;;;5031377;28;20395;-59
2021/10/25 12:18:02;;;;;;;8.30;3.88;;;15.80;98.00;;;;;;5029486;28;20151;-59
2021/10/25 12:20:40;;;;;;;4.43;2.50;;;15.90;97.70;;;;;;5029078;28;20471;-61
2021/10/25 12:23:10;;;;;;;4.72;2.20;;;16.00;96.90;;;;;;5031876;28;20033;-60
2021/10/25 12:25:36;;;;;;;3.50;1.58;;;16.10;96.90;;;;;;5027800;28;20025;-61
2021/10/25 12:28:28;;;;;;;5.18;1.58;;;16.10;96.60;;;;;;5029149;28;20499;-60
2021/10/25 12:31:20;;;;;;;4.65;2.10;;;16.10;97.30;;;;;;5019002;28;20050;-60
2021/10/25 12:33:47;;;;;;;4.97;2.15;;;16.10;96.50;;;;;;5017874;28;20102;-61
2021/10/25 12:36:19;;;;;;;3.83;1.80;;;16.00;97.10;;;;;;5022465;28;20476;-60
2021/10/25 12:38:52;;;;;;;2.97;1.63;;;16.00;96.70;;;;;;5025317;28;20499;-59
2021/10/25 12:41:18;;;;;;;6.83;2.13;;;15.90;96.60;;;;;;5029858;28;20018;-61
2021/10/25 12:43:55;;;;;;;3.90;1.75;;;15.80;96.90;;;;;;5020376;28;20028;-59
2021/10/25 12:46:22;;;;;;;2.75;1.70;;;15.80;97.20;;;;;;5025092;28;20057;-60
2021/10/25 12:48:55;;;;;;;4.80;2.03;;;15.60;97.10;;;;;;5022824;28;20048;-61
2021/10/25 12:51:32;;;;;;;3.58;1.55;;;15.60;97.70;;;;;;5025391;28;20030;-59
2021/10/25 12:54:05;;;;;;;2.75;1.70;;;15.60;98.10;;;;;;5022199;28;20025;-60
2021/10/25 12:56:30;;;;;;;3.10;2.00;;;15.60;97.60;;;;;;5030553;28;20037;-58
2021/10/25 12:59:01;;;;;;;5.15;2.28;;;15.60;97.80;;;;;;5028660;28;20041;-61
2021/10/25 13:01:26;;;;;;;4.50;1.95;;;15.60;98.10;;;;;;5028458;28;20022;-61
2021/10/25 13:03:57;;;;;;;8.38;2.55;;;15.40;97.90;;;;;;5020940;28;20064;-59
2021/10/25 13:06:30;;;;;;;4.05;1.75;;;15.40;98.20;;;;;;5030913;28;20543;-60
2021/10/25 13:09:08;;;;;;;6.85;2.30;;;15.40;98.50;;;;;;5014138;28;20427;-60
2021/10/25 13:11:35;;;;;;;3.38;1.77;;;15.30;98.60;;;;;;5030952;28;20360;-60
2021/10/25 13:14:01;;;;;;;4.95;2.15;;;15.30;99.30;;;;;;5026068;28;20100;-59
2021/10/25 13:16:44;;;;;;;4.45;2.00;;;15.40;99.20;;;;;;5023075;28;20021;-60
2021/10/25 13:19:15;;;;;;;8.27;4.60;;;15.40;99.40;;;;;;5026267;28;20052;-59
2021/10/25 13:21:41;;;;;;;2.95;2.08;;;15.60;99.30;;;;;;5028438;28;20076;-59
2021/10/25 13:24:08;;;;;;;3.53;1.50;;;15.60;99.40;;;;;;5022913;28;20487;-58
2021/10/25 13:26:35;;;;;;;7.95;2.17;;;15.70;99.60;;;;;;5031284;28;20017;-59
2021/10/25 13:29:01;;;;;;;5.50;2.58;;;15.70;99.80;;;;;;5015722;28;20029;-61
2021/10/25 13:31:27;;;;;;;2.75;1.83;;;15.70;99.80;;;;;;5028823;28;20029;-60
2021/10/25 13:33:53;;;;;;;3.65;1.55;;;15.80;99.60;;;;;;5027377;28;20120;-61
2021/10/25 13:36:18;;;;;;;5.80;3.25;;;15.80;99.80;;;;;;5030137;28;20061;-60
2021/10/25 13:38:44;;;;;;;4.85;1.80;;;15.80;99.90;;;;;;5028718;28;20029;-59
2021/10/25 13:41:10;;;;;;;2.58;1.70;;;15.90;99.60;;;;;;5030033;28;20503;-59
2021/10/25 13:43:35;;;;;;;8.40;5.03;;;15.90;99.80;;;;;;5030438;28;20113;-61
2021/10/25 13:46:01;;;;;;;5.57;2.63;;;15.90;99.40;;;;;;5026383;28;20029;-58
2021/10/25 13:48:26;;;;;;;5.50;2.63;;;15.90;99.90;;;;;;5017246;28;20050;-60
2021/10/25 13:50:54;;;;;;;13.45;5.43;;;15.90;99.90;;;;;;5026000;28;20032;-61
2021/10/25 13:53:20;;;;;;;11.70;6.32;;;15.80;99.90;;;;;;5030176;28;20040;-61
2021/10/25 13:55:46;;;;;;;8.00;3.40;;;15.80;99.90;;;;;;5019180;28;20029;-61
2021/10/25 13:58:11;;;;;;;5.40;3.22;;;15.80;99.90;;;;;;5010185;28;20707;-60
2021/10/25 14:00:37;;;;;;;10.90;3.50;;;15.80;99.90;;;;;;5014495;28;20057;-59
2021/10/25 14:03:03;;;;;;;7.18;4.00;;;15.80;99.90;;;;;;5022568;28;20026;-61
2021/10/25 14:05:29;;;;;;;3.20;2.30;;;15.90;99.90;;;;;;5015831;28;20113;-61
2021/10/25 14:07:55;;;;;;;3.45;2.13;;;15.80;99.90;;;;;;5011654;28;20038;-61
2021/10/25 14:10:28;;;;;;;3.28;1.90;;;15.80;99.60;;;;;;5017986;28;20383;-59
2021/10/25 14:12:57;;;;;;;7.15;2.45;;;15.70;99.80;;;;;;5013340;28;20037;-60
2021/10/25 14:15:30;;;;;;;6.25;2.28;;;15.70;99.80;;;;;;5015106;28;20555;-60
2021/10/25 14:17:58;;;;;;;3.47;1.97;;;15.70;99.80;;;;;;5021211;28;20030;-57
2021/10/25 14:20:28;;;;;;;4.85;1.98;;;15.60;99.90;;;;;;5022822;28;20132;-59
2021/10/25 14:22:57;;;;;;;4.35;2.15;;;15.40;99.90;;;;;;5022632;28;20025;-59
2021/10/25 14:25:22;;;;;;;13.30;2.70;;;15.30;99.80;;;;;;5018826;28;20101;-57
2021/10/25 14:27:48;;;;;;;3.55;1.98;;;15.20;99.90;;;;;;5021750;28;20161;-58
2021/10/25 14:30:14;;;;;;;3.80;2.03;;;15.00;99.90;;;;;;5013809;28;20030;-58
2021/10/25 14:32:40;;;;;;;5.30;2.55;;;14.90;99.90;;;;;;5012805;28;20228;-58
2021/10/25 14:35:07;;;;;;;4.35;2.35;;;14.80;99.90;;;;;;5015683;28;20029;-58
2021/10/25 14:37:33;;;;;;;4.85;2.30;;;14.70;99.90;;;;;;5009802;28;20065;-57
2021/10/25 14:40:05;;;;;;;3.85;2.33;;;14.60;99.90;;;;;;5010027;28;20041;-58